Time;durP1;ratioP1;P1;durP2;ratioP2;P2;SDS_P1;SDS_P2;PMS_P1;PMS_P2;Temp;Humidity;BMP_temperature;BMP_pressure;BME280_temperature;BME280_humidity;BME280_pressure;Samples;Min_cycle;Max_cycle;Signal;HPM_P1;HPM_P2
2023/05/09 00:00:45;;;;;;;15.95;3.90;;;8.70;65.10;;;;;;4997465;28;20069;-79
2023/05/09 00:03:13;;;;;;;7.95;3.58;;;8.70;65.00;;;;;;5002458;28;20053;-79
2023/05/09 00:05:40;;;;;;;6.88;3.40;;;8.60;66.00;;;;;;5020368;28;20049;-79
2023/05/09 00:08:07;;;;;;;6.15;3.40;;;8.50;66.00;;;;;;5005755;28;20060;-79
2023/05/09 00:10:34;;;;;;;12.63;3.95;;;8.40;65.60;;;;;;5022950;28;20722;-79
2023/05/09 00:13:01;;;;;;;9.80;4.00;;;8.40;65.70;;;;;;5000754;28;20087;-79
2023/05/09 00:15:29;;;;;;;6.03;3.53;;;8.30;66.70;;;;;;4999227;28;20041;-79
2023/05/09 00:17:56;;;;;;;7.13;4.03;;;8.30;66.20;;;;;;5020998;28;20133;-79
2023/05/09 00:20:23;;;;;;;10.95;4.35;;;8.20;67.30;;;;;;5002099;28;20140;-79
2023/05/09 00:22:50;;;;;;;8.05;4.32;;;8.20;67.90;;;;;;5017164;28;20045;-79
2023/05/09 00:25:16;;;;;;;6.00;4.03;;;8.10;67.60;;;;;;5004137;28;20080;-79
2023/05/09 00:27:43;;;;;;;10.45;3.58;;;8.10;68.00;;;;;;5014691;28;20317;-79
2023/05/09 00:30:10;;;;;;;7.82;4.32;;;8.10;67.80;;;;;;4997752;28;20075;-79
2023/05/09 00:32:39;;;;;;;9.80;3.88;;;8.10;68.60;;;;;;4997082;28;20911;-79
2023/05/09 00:35:07;;;;;;;8.88;4.05;;;8.20;67.70;;;;;;5014445;28;20049;-78
2023/05/09 00:37:34;;;;;;;8.77;4.53;;;8.20;68.10;;;;;;5004499;28;20154;-79
2023/05/09 00:40:01;;;;;;;11.25;3.78;;;8.10;67.70;;;;;;5019830;28;20405;-79
2023/05/09 00:42:28;;;;;;;8.65;4.22;;;8.10;68.80;;;;;;5018435;28;20447;-79
2023/05/09 00:44:55;;;;;;;6.40;4.30;;;8.00;69.10;;;;;;4998254;28;20068;-79
2023/05/09 00:47:23;;;;;;;6.65;4.00;;;8.00;68.70;;;;;;5004518;28;20049;-78
2023/05/09 00:49:50;;;;;;;6.22;3.78;;;8.00;68.80;;;;;;5005107;28;20140;-79
2023/05/09 00:52:20;;;;;;;8.40;4.45;;;7.90;68.60;;;;;;4987285;28;20042;-79
2023/05/09 00:54:47;;;;;;;7.85;3.78;;;7.90;70.20;;;;;;4993218;28;20061;-79
2023/05/09 00:57:13;;;;;;;10.48;4.55;;;7.80;70.40;;;;;;4994786;28;20466;-79
2023/05/09 00:59:40;;;;;;;8.27;3.97;;;7.80;70.10;;;;;;5011678;28;20045;-78
2023/05/09 01:02:07;;;;;;;7.30;4.03;;;7.80;70.40;;;;;;5001718;28;20056;-78
2023/05/09 01:04:34;;;;;;;7.25;4.30;;;7.70;70.50;;;;;;5004001;28;20525;-79
2023/05/09 01:07:19;;;;;;;9.60;4.10;;;7.80;71.10;;;;;;5014652;28;20060;-79
2023/05/09 01:09:58;;;;;;;15.68;5.35;;;7.80;70.40;;;;;;4989919;28;20485;-79
2023/05/09 01:12:46;;;;;;;7.55;4.47;;;7.80;70.20;;;;;;5000581;28;20054;-79
2023/05/09 01:15:33;;;;;;;10.75;4.50;;;7.80;71.10;;;;;;5003257;28;20061;-79
2023/05/09 01:18:13;;;;;;;8.82;4.43;;;7.80;71.40;;;;;;4997716;28;20519;-79
2023/05/09 01:21:07;;;;;;;14.40;4.47;;;7.70;71.00;;;;;;4999069;28;20655;-79
2023/05/09 01:23:43;;;;;;;9.50;4.85;;;7.70;71.60;;;;;;5003070;28;20049;-79
2023/05/09 01:26:31;;;;;;;8.88;4.45;;;7.60;71.40;;;;;;5019525;28;20055;-79
2023/05/09 01:29:26;;;;;;;8.50;3.92;;;7.60;71.00;;;;;;4987694;28;20075;-79
2023/05/09 01:31:55;;;;;;;6.05;3.97;;;7.50;71.80;;;;;;5002313;28;20486;-78
2023/05/09 01:34:25;;;;;;;14.27;5.07;;;7.50;71.50;;;;;;5002676;28;20594;-78
2023/05/09 01:36:57;;;;;;;12.65;5.18;;;7.50;71.20;;;;;;5017390;28;20053;-79
2023/05/09 01:39:27;;;;;;;11.75;4.90;;;7.50;70.60;;;;;;4996151;28;20049;-79
2023/05/09 01:41:56;;;;;;;11.13;4.90;;;7.50;70.90;;;;;;5002034;28;20049;-79
2023/05/09 01:44:25;;;;;;;9.98;4.38;;;7.60;71.80;;;;;;4995054;28;20041;-79
2023/05/09 01:46:54;;;;;;;9.35;4.70;;;7.60;71.90;;;;;;4997096;28;20414;-79
2023/05/09 01:49:22;;;;;;;8.88;5.05;;;7.50;71.70;;;;;;4995806;28;20047;-80
2023/05/09 01:51:51;;;;;;;10.18;4.57;;;7.50;71.90;;;;;;5010053;28;20581;-79
2023/05/09 01:54:19;;;;;;;14.80;4.90;;;7.60;72.20;;;;;;4999427;28;20060;-80
2023/05/09 01:56:47;;;;;;;9.65;4.70;;;7.60;71.80;;;;;;4992235;28;20053;-80
2023/05/09 01:59:15;;;;;;;10.50;4.85;;;7.60;72.50;;;;;;4996995;28;20049;-79
2023/05/09 02:01:43;;;;;;;17.00;5.20;;;7.60;71.20;;;;;;5014737;28;20730;-79
2023/05/09 02:04:11;;;;;;;9.90;4.55;;;7.60;71.80;;;;;;5002931;28;20049;-79
2023/05/09 02:06:39;;;;;;;7.78;4.70;;;7.70;71.70;;;;;;5021726;28;20061;-80
2023/05/09 02:09:07;;;;;;;8.90;5.03;;;7.70;71.60;;;;;;4991439;28;20060;-79
2023/05/09 02:11:34;;;;;;;8.80;5.28;;;7.70;71.40;;;;;;5017998;28;20053;-80
2023/05/09 02:14:00;;;;;;;11.43;5.00;;;7.60;71.70;;;;;;5016220;28;20041;-79
2023/05/09 02:16:28;;;;;;;11.20;5.05;;;7.70;72.10;;;;;;5018454;28;20068;-79
2023/05/09 02:18:55;;;;;;;10.73;4.45;;;7.60;70.80;;;;;;4997010;28;20462;-80
2023/05/09 02:21:22;;;;;;;10.65;4.95;;;7.60;71.60;;;;;;5020052;28;20045;-80
2023/05/09 02:23:49;;;;;;;8.48;4.65;;;7.70;71.00;;;;;;5003792;28;20057;-80
2023/05/09 02:26:16;;;;;;;10.75;4.72;;;7.70;71.40;;;;;;5020246;28;20562;-80
2023/05/09 02:28:44;;;;;;;12.82;5.22;;;7.70;71.00;;;;;;5022700;28;20049;-79
2023/05/09 02:31:12;;;;;;;9.90;4.38;;;7.70;70.40;;;;;;5004400;28;20493;-79
2023/05/09 02:33:41;;;;;;;12.43;5.60;;;7.70;70.40;;;;;;5004661;28;20053;-79
2023/05/09 02:36:09;;;;;;;11.70;5.18;;;7.80;70.80;;;;;;5004062;28;20356;-79
2023/05/09 02:38:36;;;;;;;10.80;4.55;;;7.80;70.10;;;;;;5007688;28;20076;-79
2023/05/09 02:41:03;;;;;;;9.10;4.55;;;7.80;69.90;;;;;;5019764;28;20061;-79
2023/05/09 02:43:29;;;;;;;8.30;3.90;;;7.90;69.10;;;;;;4993778;28;20045;-79
2023/05/09 02:45:56;;;;;;;7.45;4.40;;;7.90;69.70;;;;;;5013759;28;20486;-80
2023/05/09 02:48:23;;;;;;;9.00;4.95;;;7.90;68.90;;;;;;4996447;28;20056;-79
2023/05/09 02:50:50;;;;;;;8.95;4.38;;;8.00;70.50;;;;;;5001002;28;20056;-79
2023/05/09 02:53:17;;;;;;;11.43;4.38;;;8.10;68.60;;;;;;5005870;28;20065;-80
2023/05/09 02:55:43;;;;;;;9.50;4.65;;;8.10;68.80;;;;;;5000102;28;20049;-80
2023/05/09 02:58:10;;;;;;;10.18;4.80;;;8.10;68.00;;;;;;5001574;28;20060;-80
2023/05/09 03:00:41;;;;;;;8.35;4.32;;;8.10;68.30;;;;;;5005213;28;20046;-80
2023/05/09 03:03:08;;;;;;;9.63;4.25;;;8.20;67.90;;;;;;5020039;28;20050;-79
2023/05/09 03:05:36;;;;;;;8.82;4.60;;;8.20;68.10;;;;;;4995438;28;20521;-80
2023/05/09 03:08:03;;;;;;;15.43;4.32;;;8.20;68.10;;;;;;5017775;28;20821;-80
2023/05/09 03:10:29;;;;;;;8.75;4.07;;;8.20;67.50;;;;;;5001956;28;20806;-80
2023/05/09 03:12:56;;;;;;;7.72;4.35;;;8.20;67.40;;;;;;5020316;28;20060;-80
2023/05/09 03:15:23;;;;;;;7.10;3.35;;;8.20;66.60;;;;;;4999268;28;20048;-80
2023/05/09 03:17:50;;;;;;;7.47;3.65;;;8.20;67.00;;;;;;5017314;28;20061;-79
2023/05/09 03:20:17;;;;;;;11.77;5.43;;;8.20;67.00;;;;;;5000862;28;20140;-79
2023/05/09 03:22:44;;;;;;;13.25;5.30;;;8.20;67.30;;;;;;5020649;28;20565;-80
2023/05/09 03:25:11;;;;;;;6.80;4.00;;;8.20;66.80;;;;;;4999715;28;20057;-79
2023/05/09 03:27:39;;;;;;;9.13;4.40;;;8.20;66.90;;;;;;5013232;28;20053;-80
2023/05/09 03:30:06;;;;;;;9.07;3.60;;;8.20;66.70;;;;;;5021349;28;20160;-79
2023/05/09 03:32:33;;;;;;;8.95;4.40;;;8.20;66.50;;;;;;5004770;28;20055;-80
2023/05/09 03:35:00;;;;;;;10.43;4.28;;;8.20;67.40;;;;;;4997524;28;20061;-80
2023/05/09 03:37:27;;;;;;;9.32;4.18;;;8.30;66.90;;;;;;4990401;28;20069;-80
2023/05/09 03:39:54;;;;;;;10.20;4.32;;;8.30;66.60;;;;;;5005670;28;20529;-79
2023/05/09 03:42:21;;;;;;;8.18;4.05;;;8.30;66.50;;;;;;5022893;28;20414;-80
2023/05/09 03:44:48;;;;;;;10.95;3.67;;;8.30;66.70;;;;;;5002613;28;20057;-80
2023/05/09 03:47:15;;;;;;;6.88;3.45;;;8.30;66.70;;;;;;5000612;28;20837;-80
2023/05/09 03:49:42;;;;;;;7.03;3.85;;;8.30;66.80;;;;;;5000806;28;20389;-80
2023/05/09 03:52:09;;;;;;;5.75;3.65;;;8.30;66.90;;;;;;5005075;28;20517;-79
2023/05/09 03:54:36;;;;;;;8.10;4.20;;;8.30;67.20;;;;;;4993757;28;20060;-80
2023/05/09 03:57:02;;;;;;;7.15;3.72;;;8.30;66.80;;;;;;5001534;28;20076;-80
2023/05/09 03:59:29;;;;;;;13.73;3.88;;;8.30;66.50;;;;;;4990648;28;20053;-80
2023/05/09 04:01:57;;;;;;;8.07;4.00;;;8.30;66.30;;;;;;5023138;28;20096;-80
2023/05/09 04:04:24;;;;;;;9.13;4.53;;;8.30;67.10;;;;;;4995533;28;20561;-80
2023/05/09 04:06:51;;;;;;;6.95;3.22;;;8.40;66.40;;;;;;5002545;28;20056;-80
2023/05/09 04:09:18;;;;;;;7.97;4.03;;;8.40;66.80;;;;;;4999952;28;20046;-80
2023/05/09 04:11:45;;;;;;;8.88;3.78;;;8.40;65.80;;;;;;5000583;28;20056;-79
2023/05/09 04:14:12;;;;;;;11.63;4.50;;;8.40;66.10;;;;;;4995853;28;20365;-79
2023/05/09 04:16:39;;;;;;;5.57;3.72;;;8.50;65.30;;;;;;5011533;28;20080;-79
2023/05/09 04:19:06;;;;;;;9.65;3.53;;;8.50;66.10;;;;;;5004844;28;20049;-80
2023/05/09 04:21:33;;;;;;;7.85;3.90;;;8.50;64.70;;;;;;4998103;28;20482;-80
2023/05/09 04:24:00;;;;;;;7.43;3.83;;;8.60;65.00;;;;;;4999053;28;20061;-79
2023/05/09 04:26:27;;;;;;;7.43;3.35;;;8.60;65.10;;;;;;4999842;28;20050;-80
2023/05/09 04:28:53;;;;;;;9.73;3.40;;;8.60;64.70;;;;;;5002259;28;20320;-79
2023/05/09 04:31:21;;;;;;;6.95;3.03;;;8.70;64.10;;;;;;5003721;28;20079;-78
2023/05/09 04:33:48;;;;;;;6.43;3.25;;;8.70;64.30;;;;;;4992666;28;20053;-80
2023/05/09 04:36:15;;;;;;;6.28;3.40;;;8.70;64.30;;;;;;5018424;28;20060;-78
2023/05/09 04:38:42;;;;;;;9.50;3.58;;;8.80;64.50;;;;;;5000506;28;20761;-82
2023/05/09 04:41:09;;;;;;;17.77;3.42;;;8.80;64.00;;;;;;5004544;28;20061;-81
2023/05/09 04:43:36;;;;;;;14.60;3.42;;;8.80;63.70;;;;;;5016262;28;20501;-80
2023/05/09 04:46:03;;;;;;;7.50;3.40;;;8.90;62.90;;;;;;5002457;28;20064;-80
2023/05/09 04:48:30;;;;;;;9.93;3.22;;;8.90;63.10;;;;;;4998427;28;20103;-84
2023/05/09 04:50:57;;;;;;;10.27;3.85;;;8.90;63.40;;;;;;5003855;28;20056;-77
2023/05/09 04:53:23;;;;;;;6.55;3.20;;;9.00;62.90;;;;;;4999982;28;20444;-78
2023/05/09 04:55:50;;;;;;;7.88;3.60;;;9.00;62.00;;;;;;5003355;28;20050;-83
2023/05/09 04:58:17;;;;;;;10.30;3.55;;;9.10;62.30;;;;;;4999542;28;20449;-79
2023/05/09 05:00:45;;;;;;;5.15;2.67;;;9.10;63.60;;;;;;5000194;28;20054;-79
2023/05/09 05:03:12;;;;;;;7.65;3.95;;;9.10;63.50;;;;;;4993279;28;20447;-77
2023/05/09 05:05:40;;;;;;;9.95;2.97;;;9.20;63.10;;;;;;5016607;28;20406;-78
2023/05/09 05:08:07;;;;;;;6.38;3.03;;;9.20;62.90;;;;;;5015688;28;20540;-76
2023/05/09 05:10:34;;;;;;;10.15;3.20;;;9.20;63.20;;;;;;4996841;28;20399;-79
2023/05/09 05:13:01;;;;;;;10.27;4.22;;;9.30;62.90;;;;;;4998236;28;20072;-84
2023/05/09 05:15:28;;;;;;;7.75;2.95;;;9.30;62.20;;;;;;5004460;28;20042;-83
2023/05/09 05:17:55;;;;;;;6.60;3.42;;;9.30;62.60;;;;;;4999009;28;20053;-87
2023/05/09 05:20:22;;;;;;;10.82;3.17;;;9.40;61.60;;;;;;5000772;28;20072;-83
2023/05/09 05:22:49;;;;;;;5.35;3.00;;;9.40;62.50;;;;;;5002946;28;20049;-85
2023/05/09 05:25:17;;;;;;;14.57;3.45;;;9.40;61.80;;;;;;5017558;28;20085;-80
2023/05/09 05:27:44;;;;;;;8.82;3.25;;;9.50;61.40;;;;;;5000108;28;20061;-84
2023/05/09 05:30:14;;;;;;;10.65;4.35;;;9.50;61.20;;;;;;5004456;28;20103;-81
2023/05/09 05:32:41;;;;;;;14.88;3.22;;;9.60;61.00;;;;;;5020476;28;20494;-79
2023/05/09 05:35:10;;;;;;;10.98;3.13;;;9.70;60.70;;;;;;5001061;28;20285;-80
2023/05/09 05:37:39;;;;;;;11.35;2.90;;;9.70;61.20;;;;;;5016688;28;20061;-78
2023/05/09 05:40:07;;;;;;;4.50;2.70;;;9.80;60.30;;;;;;5017507;28;20055;-80
2023/05/09 05:42:34;;;;;;;9.50;3.50;;;9.80;59.90;;;;;;5017802;28;20049;-76
2023/05/09 05:45:03;;;;;;;14.63;3.40;;;9.90;59.80;;;;;;5014334;28;20814;-77
2023/05/09 05:47:34;;;;;;;5.80;2.88;;;10.00;59.60;;;;;;5022128;28;20064;-77
2023/05/09 05:50:03;;;;;;;6.57;3.00;;;10.10;60.00;;;;;;5020917;28;20042;-80
2023/05/09 05:52:30;;;;;;;8.85;3.47;;;10.20;59.00;;;;;;5001360;28;20081;-79
2023/05/09 05:54:57;;;;;;;8.63;3.28;;;10.20;60.20;;;;;;5016662;28;20557;-80
2023/05/09 05:57:24;;;;;;;12.80;2.92;;;10.30;59.20;;;;;;4999653;28;20053;-80
2023/05/09 05:59:50;;;;;;;22.98;3.75;;;10.40;59.50;;;;;;5019389;28;20050;-80
2023/05/09 06:02:17;;;;;;;9.88;2.88;;;10.50;59.80;;;;;;5003333;28;20053;-76
2023/05/09 06:04:44;;;;;;;5.82;3.15;;;10.70;58.70;;;;;;5000928;28;20531;-77
2023/05/09 06:07:12;;;;;;;8.35;3.45;;;10.90;59.60;;;;;;5015511;28;20053;-77
2023/05/09 06:09:39;;;;;;;13.27;3.20;;;11.10;58.10;;;;;;5013779;28;20046;-77
2023/05/09 06:12:06;;;;;;;6.43;2.97;;;11.40;58.50;;;;;;5019803;28;20041;-77
2023/05/09 06:14:33;;;;;;;13.38;3.20;;;11.90;56.80;;;;;;5000084;28;20061;-78
2023/05/09 06:17:00;;;;;;;9.23;3.17;;;12.20;56.80;;;;;;5020207;28;20504;-79
2023/05/09 06:19:27;;;;;;;8.52;2.67;;;12.70;53.70;;;;;;5001263;28;20053;-77
2023/05/09 06:21:54;;;;;;;7.25;3.25;;;13.00;55.60;;;;;;5004102;28;20452;-76
2023/05/09 06:24:21;;;;;;;9.07;2.42;;;13.50;53.80;;;;;;4990846;28;20520;-76
2023/05/09 06:27:01;;;;;;;6.47;2.67;;;13.90;52.70;;;;;;5009142;28;21135;-78
2023/05/09 06:29:28;;;;;;;4.20;2.28;;;14.50;53.40;;;;;;5017180;28;20498;-78
2023/05/09 06:31:54;;;;;;;5.97;2.78;;;15.20;51.40;;;;;;5004789;28;20312;-77
2023/05/09 06:34:21;;;;;;;11.50;2.95;;;15.70;48.40;;;;;;5023551;28;20053;-77
2023/05/09 06:36:48;;;;;;;4.68;3.05;;;16.20;49.10;;;;;;5017255;28;20472;-78
2023/05/09 06:39:15;;;;;;;10.38;2.72;;;16.60;48.50;;;;;;5008189;28;20502;-77
2023/05/09 06:41:42;;;;;;;12.93;2.63;;;17.20;47.40;;;;;;5004586;28;20052;-78
2023/05/09 06:44:09;;;;;;;5.82;2.85;;;17.90;46.10;;;;;;5003040;28;20396;-78
2023/05/09 06:46:36;;;;;;;10.02;2.97;;;18.60;43.80;;;;;;5003361;28;20049;-77
2023/05/09 06:49:02;;;;;;;6.30;2.40;;;19.10;44.20;;;;;;5016500;28;20048;-77
2023/05/09 06:51:29;;;;;;;23.10;2.88;;;19.50;42.80;;;;;;5018686;28;20041;-77
2023/05/09 06:53:56;;;;;;;5.97;2.47;;;19.90;42.70;;;;;;5001164;28;20058;-84
2023/05/09 06:56:24;;;;;;;8.65;2.75;;;20.50;42.80;;;;;;5005350;28;20439;-78
2023/05/09 06:58:51;;;;;;;6.80;3.25;;;20.90;42.00;;;;;;4996504;28;20064;-78
2023/05/09 07:01:17;;;;;;;7.03;2.83;;;21.00;41.70;;;;;;5018308;28;20088;-78
2023/05/09 07:03:46;;;;;;;9.30;3.38;;;21.40;41.40;;;;;;5006259;28;20160;-78
2023/05/09 07:06:13;;;;;;;6.88;2.80;;;21.70;39.70;;;;;;4997772;28;20342;-78
2023/05/09 07:08:40;;;;;;;5.47;2.83;;;21.50;40.60;;;;;;5000157;28;20422;-78
2023/05/09 07:11:07;;;;;;;7.68;3.10;;;21.90;40.30;;;;;;5023972;28;20048;-79
2023/05/09 07:13:33;;;;;;;19.52;3.47;;;22.20;39.60;;;;;;5006765;28;20053;-78
2023/05/09 07:16:00;;;;;;;8.45;3.10;;;22.10;40.20;;;;;;4989820;28;20137;-80
2023/05/09 07:18:28;;;;;;;8.82;2.70;;;21.90;39.50;;;;;;5019539;28;20120;-78
2023/05/09 07:21:00;;;;;;;8.38;2.85;;;22.00;40.20;;;;;;5007758;28;20173;-78
2023/05/09 07:23:27;;;;;;;4.75;2.80;;;21.90;41.00;;;;;;5011179;28;20060;-80
2023/05/09 07:25:57;;;;;;;3.15;2.58;;;21.80;40.80;;;;;;5001122;28;20045;-80
2023/05/09 07:28:25;;;;;;;5.07;2.63;;;22.00;40.50;;;;;;5014259;28;20893;-80
2023/05/09 07:30:54;;;;;;;5.15;2.60;;;22.20;41.00;;;;;;5024402;28;20056;-80
2023/05/09 07:33:21;;;;;;;12.40;3.97;;;22.60;40.20;;;;;;5018443;28;20460;-80
2023/05/09 07:35:48;;;;;;;7.78;2.70;;;22.80;40.50;;;;;;5004754;28;20140;-80
2023/05/09 07:38:15;;;;;;;6.95;2.67;;;23.10;39.70;;;;;;5010933;28;20056;-79
2023/05/09 07:40:42;;;;;;;11.10;2.83;;;23.30;39.90;;;;;;5016488;28;20450;-80
2023/05/09 07:43:09;;;;;;;8.45;2.80;;;23.60;39.30;;;;;;5018134;28;20057;-80
2023/05/09 07:45:36;;;;;;;11.23;3.28;;;23.80;39.10;;;;;;5003855;28;20049;-80
2023/05/09 07:48:03;;;;;;;6.88;3.17;;;24.00;39.80;;;;;;4993106;28;20116;-80
2023/05/09 07:50:30;;;;;;;6.47;2.83;;;24.20;37.90;;;;;;5017617;28;20085;-79
2023/05/09 07:52:57;;;;;;;6.55;2.70;;;24.00;39.60;;;;;;5015075;28;20482;-79
2023/05/09 07:55:24;;;;;;;6.40;2.55;;;24.30;39.10;;;;;;5019193;28;20060;-80
2023/05/09 07:57:50;;;;;;;5.63;2.75;;;24.40;39.10;;;;;;5002520;28;20050;-79
2023/05/09 08:00:22;;;;;;;3.28;2.40;;;24.60;38.50;;;;;;5013263;28;20570;-80
2023/05/09 08:02:50;;;;;;;8.38;2.92;;;24.60;38.30;;;;;;5000377;28;20124;-79
2023/05/09 08:05:17;;;;;;;7.10;2.78;;;24.50;38.20;;;;;;5005797;28;20042;-80
2023/05/09 08:07:45;;;;;;;7.38;2.67;;;24.70;38.00;;;;;;5018203;28;20053;-80
2023/05/09 08:10:12;;;;;;;6.22;2.60;;;24.70;38.70;;;;;;4999065;28;20380;-80
2023/05/09 08:12:39;;;;;;;5.72;2.58;;;24.70;38.60;;;;;;5006840;28;20064;-79
2023/05/09 08:15:06;;;;;;;12.90;2.95;;;25.00;38.80;;;;;;4996236;28;20080;-79
2023/05/09 08:17:33;;;;;;;7.40;2.67;;;24.80;38.50;;;;;;4995272;28;20189;-80
2023/05/09 08:20:00;;;;;;;11.52;2.88;;;25.10;38.40;;;;;;5015346;28;20069;-80
2023/05/09 08:22:27;;;;;;;4.97;2.45;;;25.10;37.30;;;;;;4999079;28;20041;-80
2023/05/09 08:24:54;;;;;;;8.07;3.55;;;25.20;36.80;;;;;;5011499;28;20058;-80
2023/05/09 08:27:20;;;;;;;6.97;2.40;;;24.90;37.80;;;;;;5018915;28;20096;-81
2023/05/09 08:29:47;;;;;;;6.40;2.60;;;24.80;37.10;;;;;;4995403;28;20072;-80
2023/05/09 08:32:14;;;;;;;7.03;2.72;;;25.00;38.30;;;;;;5003922;28;20482;-80
2023/05/09 08:34:41;;;;;;;3.85;2.88;;;25.30;38.10;;;;;;5003242;28;20045;-82
2023/05/09 08:37:08;;;;;;;6.15;3.00;;;25.80;38.60;;;;;;5016988;28;20058;-79
2023/05/09 08:39:34;;;;;;;6.13;2.75;;;25.90;37.10;;;;;;5003613;28;20057;-80
2023/05/09 08:42:02;;;;;;;14.77;3.00;;;25.80;37.10;;;;;;5020532;28;20500;-79
2023/05/09 08:44:30;;;;;;;6.88;2.42;;;26.00;37.40;;;;;;5004343;28;20454;-78
2023/05/09 08:47:02;;;;;;;8.45;2.78;;;26.00;37.10;;;;;;4991018;28;20050;-78
2023/05/09 08:49:29;;;;;;;5.30;3.20;;;25.90;36.90;;;;;;5022208;28;20077;-78
2023/05/09 08:51:56;;;;;;;10.43;3.25;;;25.40;36.50;;;;;;5022980;28;20053;-78
2023/05/09 08:54:24;;;;;;;7.68;2.88;;;25.50;38.00;;;;;;5010023;28;20593;-78
2023/05/09 08:56:51;;;;;;;13.32;2.67;;;25.90;36.40;;;;;;5001250;28;20426;-78
2023/05/09 08:59:18;;;;;;;10.50;2.67;;;26.40;37.00;;;;;;4993649;28;20050;-77
2023/05/09 09:01:46;;;;;;;8.00;3.20;;;26.30;36.30;;;;;;4991817;28;20068;-78
2023/05/09 09:04:13;;;;;;;8.40;2.78;;;26.50;35.90;;;;;;5016004;28;20045;-79
2023/05/09 09:06:41;;;;;;;11.00;3.00;;;26.60;35.00;;;;;;5019189;28;20508;-78
2023/05/09 09:09:10;;;;;;;4.18;2.60;;;26.60;35.70;;;;;;5019870;28;20180;-78
2023/05/09 09:11:39;;;;;;;8.00;2.17;;;27.30;34.20;;;;;;5015086;28;20148;-78
2023/05/09 09:14:14;;;;;;;8.63;2.50;;;27.60;33.60;;;;;;5011739;28;20053;-78
2023/05/09 09:16:42;;;;;;;;;;;27.80;34.20;;;;;;5003351;28;20512;-77
2023/05/09 09:19:12;;;;;;;5.90;2.40;;;28.00;33.70;;;;;;5016574;28;19944;-78
2023/05/09 09:21:48;;;;;;;6.95;2.33;;;28.10;34.30;;;;;;5002781;28;20414;-78
2023/05/09 09:24:19;;;;;;;9.70;2.83;;;27.50;32.70;;;;;;4990298;28;20056;-78
2023/05/09 09:26:47;;;;;;;4.32;2.00;;;27.80;33.40;;;;;;5018357;28;20057;-78
2023/05/09 09:29:15;;;;;;;5.05;2.15;;;27.80;33.20;;;;;;5014619;28;20075;-78
2023/05/09 09:31:47;;;;;;;6.18;2.38;;;27.90;32.60;;;;;;5001090;28;20503;-78
2023/05/09 09:34:22;;;;;;;6.60;2.38;;;27.90;33.50;;;;;;5007107;28;20058;-78
2023/05/09 09:36:50;;;;;;;3.65;2.00;;;28.30;32.20;;;;;;5000100;28;20085;-78
2023/05/09 09:39:17;;;;;;;6.57;2.20;;;28.40;33.30;;;;;;5020392;28;20160;-78
2023/05/09 09:41:44;;;;;;;6.07;2.22;;;28.40;32.20;;;;;;5003563;28;20132;-78
2023/05/09 09:44:12;;;;;;;9.10;2.20;;;28.20;30.50;;;;;;5016091;28;20053;-78
2023/05/09 09:46:45;;;;;;;6.20;2.30;;;28.30;30.10;;;;;;4996482;28;20041;-78
2023/05/09 09:49:13;;;;;;;6.53;2.22;;;28.40;30.90;;;;;;5004492;28;20060;-78
2023/05/09 09:51:41;;;;;;;6.78;2.47;;;28.70;31.30;;;;;;5025638;28;20417;-78
2023/05/09 09:54:10;;;;;;;9.25;2.10;;;28.60;31.10;;;;;;5017406;28;20073;-78
2023/05/09 09:56:41;;;;;;;10.20;2.50;;;28.60;31.20;;;;;;5019960;28;20479;-78
2023/05/09 09:59:16;;;;;;;5.90;1.98;;;29.20;29.70;;;;;;5017072;28;20137;-78
2023/05/09 10:01:59;;;;;;;6.32;1.98;;;29.00;29.90;;;;;;4996479;28;20160;-78
2023/05/09 10:04:34;;;;;;;7.82;2.03;;;29.20;29.20;;;;;;5016933;28;20100;-77
2023/05/09 10:07:03;;;;;;;6.63;2.35;;;29.00;29.90;;;;;;5018000;28;20485;-78
2023/05/09 10:09:32;;;;;;;2.42;1.75;;;29.20;29.60;;;;;;5020423;28;20053;-78
2023/05/09 10:12:05;;;;;;;8.65;2.20;;;29.30;29.70;;;;;;5021008;28;20577;-78
2023/05/09 10:14:35;;;;;;;3.20;1.70;;;29.30;29.80;;;;;;5013269;28;20057;-78
2023/05/09 10:17:03;;;;;;;7.35;3.05;;;29.80;30.40;;;;;;4994438;28;20503;-78
2023/05/09 10:19:31;;;;;;;7.22;1.80;;;29.90;30.20;;;;;;4991970;28;20077;-78
2023/05/09 10:22:04;;;;;;;6.53;1.67;;;30.10;29.50;;;;;;4995074;28;20137;-78
2023/05/09 10:24:46;;;;;;;6.45;1.70;;;29.80;28.60;;;;;;5007851;28;20050;-76
2023/05/09 10:27:16;;;;;;;4.32;1.90;;;29.90;29.00;;;;;;5015703;28;20042;-76
2023/05/09 10:30:15;;;;;;;18.25;1.98;;;30.20;29.00;;;;;;4990969;28;20061;-76
2023/05/09 10:32:48;;;;;;;6.18;1.60;;;30.40;28.90;;;;;;5016628;28;20053;-76
2023/05/09 10:35:17;;;;;;;6.72;1.88;;;30.70;29.20;;;;;;5017752;28;20053;-76
2023/05/09 10:37:47;;;;;;;3.80;1.75;;;30.20;29.10;;;;;;4994443;28;20053;-76
2023/05/09 10:40:14;;;;;;;5.28;2.30;;;30.50;29.30;;;;;;4994546;28;20045;-76
2023/05/09 10:42:42;;;;;;;10.82;2.03;;;29.90;28.10;;;;;;5015213;28;20061;-76
2023/05/09 10:45:12;;;;;;;4.93;2.55;;;30.20;28.60;;;;;;5021176;28;20481;-76
2023/05/09 10:47:42;;;;;;;5.97;2.72;;;30.60;28.40;;;;;;5024966;28;20329;-76
2023/05/09 10:50:13;;;;;;;7.75;2.20;;;30.40;28.70;;;;;;5023520;28;20049;-76
2023/05/09 10:53:12;;;;;;;9.80;2.22;;;30.60;29.40;;;;;;4997471;28;20483;-76
2023/05/09 10:55:45;;;;;;;5.18;1.88;;;30.80;28.70;;;;;;5013636;28;20080;-76
2023/05/09 10:58:21;;;;;;;5.03;1.90;;;31.20;27.40;;;;;;5016801;28;20053;-80
2023/05/09 11:00:50;;;;;;;3.95;1.77;;;31.00;28.70;;;;;;5011208;28;20045;-80
2023/05/09 11:03:18;;;;;;;5.38;2.55;;;31.00;28.50;;;;;;5010051;28;20062;-80
2023/05/09 11:05:47;;;;;;;14.18;2.65;;;30.90;26.80;;;;;;5002957;28;20053;-80
2023/05/09 11:08:27;;;;;;;7.57;2.40;;;30.40;28.70;;;;;;5004335;28;20053;-80
2023/05/09 11:10:56;;;;;;;10.73;2.45;;;30.00;27.60;;;;;;5015636;28;20060;-80
2023/05/09 11:13:25;;;;;;;7.97;2.08;;;30.30;29.10;;;;;;5014690;28;20053;-80
2023/05/09 11:16:01;;;;;;;9.75;2.47;;;30.40;28.10;;;;;;5015965;28;20633;-80
2023/05/09 11:18:29;;;;;;;8.82;2.65;;;30.50;29.90;;;;;;5006289;28;20493;-81
2023/05/09 11:20:55;;;;;;;11.40;2.58;;;30.10;27.80;;;;;;5007597;28;20504;-78
2023/05/09 11:23:26;;;;;;;12.57;2.03;;;29.70;30.80;;;;;;5021997;28;20396;-78
2023/05/09 11:26:05;;;;;;;4.63;1.65;;;29.60;29.10;;;;;;5015735;28;20067;-78
2023/05/09 11:28:35;;;;;;;19.88;2.47;;;30.40;28.60;;;;;;5023155;28;20104;-78
2023/05/09 11:31:17;;;;;;;6.47;2.20;;;29.40;28.00;;;;;;5015274;28;20050;-78
2023/05/09 11:33:47;;;;;;;6.53;2.38;;;29.10;28.30;;;;;;5023559;28;20085;-78
2023/05/09 11:36:17;;;;;;;7.40;2.38;;;29.00;29.10;;;;;;4998167;28;20049;-81
2023/05/09 11:38:46;;;;;;;5.05;1.95;;;29.20;30.70;;;;;;4999308;28;20046;-84
2023/05/09 11:41:13;;;;;;;8.27;1.85;;;30.00;29.80;;;;;;5019323;28;20069;-80
2023/05/09 11:43:41;;;;;;;10.57;1.98;;;30.80;29.70;;;;;;5023270;28;20041;-80
2023/05/09 11:46:08;;;;;;;11.73;2.90;;;31.20;29.40;;;;;;5020062;28;20160;-78
2023/05/09 11:48:40;;;;;;;7.32;2.00;;;31.50;28.10;;;;;;4995741;28;20913;-76
2023/05/09 11:51:17;;;;;;;5.28;2.08;;;31.70;28.20;;;;;;5003935;28;20057;-81
2023/05/09 11:53:50;;;;;;;2.75;1.83;;;32.00;27.60;;;;;;5021393;28;20053;-82
2023/05/09 11:56:17;;;;;;;3.60;1.80;;;31.70;27.20;;;;;;5003987;28;20058;-80
2023/05/09 11:58:45;;;;;;;5.85;1.92;;;31.70;27.30;;;;;;5014827;28;20549;-80
2023/05/09 12:01:12;;;;;;;7.82;2.72;;;30.90;28.10;;;;;;5020066;28;20049;-80
2023/05/09 12:03:46;;;;;;;10.95;1.95;;;31.00;28.10;;;;;;5014589;28;20451;-81
2023/05/09 12:06:15;;;;;;;13.15;1.90;;;30.90;28.30;;;;;;5011272;28;20045;-84
2023/05/09 12:08:46;;;;;;;5.03;2.42;;;30.70;26.70;;;;;;5013079;28;20053;-82
2023/05/09 12:11:13;;;;;;;4.15;1.92;;;30.70;28.20;;;;;;4991108;28;20065;-84
2023/05/09 12:13:59;;;;;;;6.35;1.75;;;31.00;28.30;;;;;;4997737;28;20624;-85
2023/05/09 12:16:26;;;;;;;7.82;2.20;;;31.40;27.90;;;;;;4997446;28;20088;-83
2023/05/09 12:18:53;;;;;;;14.57;2.08;;;31.40;26.30;;;;;;4996772;28;20096;-86
2023/05/09 12:21:20;;;;;;;6.55;2.50;;;31.20;27.80;;;;;;5022886;28;20056;-84
2023/05/09 12:23:47;;;;;;;6.85;1.90;;;31.20;26.40;;;;;;4998369;28;20352;-84
2023/05/09 12:26:18;;;;;;;5.75;2.20;;;30.90;26.90;;;;;;5016266;28;20081;-90
2023/05/09 12:28:46;;;;;;;15.75;2.30;;;30.20;28.10;;;;;;4997394;28;20057;-80
2023/05/09 12:31:13;;;;;;;10.68;2.13;;;30.60;27.30;;;;;;5023023;28;20449;-85
2023/05/09 12:33:40;;;;;;;8.02;2.22;;;31.00;27.10;;;;;;5021207;28;20049;-85
2023/05/09 12:36:11;;;;;;;4.22;1.60;;;31.10;26.20;;;;;;5023331;28;20418;-88
2023/05/09 12:38:38;;;;;;;6.35;2.00;;;30.90;27.00;;;;;;5011550;28;20336;-85
2023/05/09 12:41:05;;;;;;;6.90;1.73;;;30.50;26.20;;;;;;5020887;28;20053;-87
2023/05/09 12:43:47;;;;;;;5.00;2.08;;;29.80;26.60;;;;;;5002356;28;20069;-83
2023/05/09 12:46:19;;;;;;;16.55;1.92;;;29.70;27.90;;;;;;5017742;28;20049;-85
2023/05/09 12:48:47;;;;;;;19.85;2.60;;;29.00;27.20;;;;;;4994383;28;20163;-83
2023/05/09 12:51:19;;;;;;;9.88;2.00;;;28.60;27.90;;;;;;5003336;28;20451;-84
2023/05/09 12:53:47;;;;;;;5.97;1.98;;;28.90;27.50;;;;;;5020076;28;20060;-81
2023/05/09 12:56:15;;;;;;;9.43;2.30;;;29.00;28.50;;;;;;5022545;28;20053;-81